Карточка аэропорта UAKK

Внимание!
Информация на этой странице в стадии наполнения.
Если вы не увидели какой-то информации, или заметили неточность - пожалуйста сообщите нам!
Спасибо!
Команда RU-STAFF
Название аэропортаКараганда
Название аэропорта (англ.)Karaganda
Превышение1768 ft. (538.9 m.)
Координаты49°40.302', 73°20.118'
Высота перехода10000
Эшелон переходаby ATC
Коды ответчика0630-0637, 7220-7227
Зона ОрВДАстана РПИ (UACN)
Данные METARUAKK 280600Z 21003MPS 9000 BKN015 M07/M08 Q1033 NOSIG RMK QFE727/0970
Проноз погоды (TAF)UAKK 280501Z 2806/2906 23003MPS 5000 -SN BR BKN011 BKN020 TXM05/2812Z TNM14/2902Z TEMPO 2806/2812 VRB02MPS 2000 BKN005 BECMG 2815/2817 17003MPS TEMPO 2815/2903 3100 BKN007
NOTAMshow/hide NOTAM
AWOS   TABLE

Информация о ВПП

ВПП Длина ВПП (м.) Покрытие Курс ВПП Частота ILS
053601Железобетон50109.9
233601Железобетон230111.7

Диспетчерские позиции




Спутниковое изображение